Time;durP1;ratioP1;P1;durP2;ratioP2;P2;SDS_P1;SDS_P2;PMS_P1;PMS_P2;Temp;Humidity;BMP_temperature;BMP_pressure;BME280_temperature;BME280_humidity;BME280_pressure;Samples;Min_cycle;Max_cycle;Signal;HPM_P1;HPM_P2
2021/12/19 00:01:52;;;;;;;8.20;1.90;;;;;;;-1.90;73.02;97205.22;4981577;28;20510;-66
2021/12/19 00:09:35;;;;;;;5.63;1.97;;;;;;;-1.80;72.86;97177.69;4983835;28;20053;-67
2021/12/19 00:12:01;;;;;;;4.43;1.80;;;;;;;-1.91;73.09;97187.53;4992238;28;20128;-66
2021/12/19 00:14:28;;;;;;;8.70;1.83;;;;;;;-1.92;73.28;97171.75;4989124;28;20050;-68
2021/12/19 00:16:55;;;;;;;2.92;1.30;;;;;;;-1.92;73.23;97143.06;4990525;28;20058;-69
2021/12/19 00:19:22;;;;;;;3.53;1.50;;;;;;;-2.01;73.59;97153.47;4979239;28;20049;-69
2021/12/19 00:21:49;;;;;;;6.25;1.88;;;;;;;-2.04;73.74;97150.47;4989005;28;20418;-70
2021/12/19 00:24:16;;;;;;;6.65;2.15;;;;;;;-2.01;73.94;97142.75;4989442;28;20046;-68
2021/12/19 00:26:42;;;;;;;8.30;1.65;;;;;;;-2.08;74.20;97131.47;4994397;28;20400;-68
2021/12/19 00:29:09;;;;;;;4.93;1.77;;;;;;;-2.00;73.98;97122.16;4992708;28;20598;-68
2021/12/19 00:31:37;;;;;;;4.20;1.60;;;;;;;-2.01;74.05;97132.03;4983110;28;20061;-68
2021/12/19 00:34:06;;;;;;;4.77;1.50;;;;;;;-2.00;73.89;97112.22;4997627;28;20506;-68
2021/12/19 00:36:33;;;;;;;3.97;1.43;;;;;;;-2.08;74.27;97093.97;4996693;28;20466;-69
2021/12/19 00:38:59;;;;;;;3.07;1.40;;;;;;;-2.06;74.17;97112.44;4992974;28;20062;-69
2021/12/19 00:41:25;;;;;;;5.07;1.60;;;;;;;-1.98;74.08;97097.75;4990841;28;20078;-69
2021/12/19 00:43:55;;;;;;;3.53;1.40;;;;;;;-1.95;73.87;97091.88;4976932;28;20043;-68
2021/12/19 00:46:24;;;;;;;3.43;1.30;;;;;;;-1.97;73.74;97085.97;4968043;28;20078;-69
2021/12/19 00:48:53;;;;;;;5.60;1.60;;;;;;;-1.98;74.10;97062.94;4976721;28;20046;-68
2021/12/19 00:51:22;;;;;;;7.00;1.67;;;;;;;-2.03;73.99;97064.53;4989549;28;20046;-69
2021/12/19 00:53:49;;;;;;;4.63;1.37;;;;;;;-2.01;74.15;97040.97;4994578;28;20093;-69
2021/12/19 00:56:15;;;;;;;3.45;1.50;;;;;;;-1.98;73.95;97049.56;5000995;28;20088;-69
2021/12/19 00:58:43;;;;;;;3.23;1.37;;;;;;;-1.94;73.84;97021.22;4993260;28;20043;-69
2021/12/19 01:01:10;;;;;;;4.30;1.50;;;;;;;-1.93;73.89;97020.13;4983331;28;20054;-69
2021/12/19 01:03:37;;;;;;;2.55;1.30;;;;;;;-1.95;73.90;97023.06;4997430;28;20161;-69
2021/12/19 01:06:05;;;;;;;4.55;1.35;;;;;;;-2.00;73.92;96999.75;4993000;28;20101;-68
2021/12/19 01:08:31;;;;;;;4.07;1.50;;;;;;;-2.01;74.04;96998.13;4975257;28;20034;-69
2021/12/19 01:10:57;;;;;;;3.13;1.30;;;;;;;-1.92;73.90;96995.75;4994407;28;20046;-70
2021/12/19 01:13:23;;;;;;;6.73;1.40;;;;;;;-2.02;74.26;96982.34;4993658;28;20072;-69
2021/12/19 01:15:51;;;;;;;4.53;1.47;;;;;;;-2.16;74.26;96965.94;4994413;28;20070;-68
2021/12/19 01:18:17;;;;;;;3.50;1.30;;;;;;;-2.00;74.18;96966.81;4993186;28;20527;-69
2021/12/19 01:20:44;;;;;;;3.90;1.30;;;;;;;-1.95;73.94;96955.28;4993853;28;20089;-69
2021/12/19 01:23:12;;;;;;;3.87;1.50;;;;;;;-1.91;73.87;96943.78;5009301;28;20044;-69
2021/12/19 01:25:38;;;;;;;5.00;1.50;;;;;;;-2.05;74.32;96940.81;4978804;28;20054;-69
2021/12/19 01:28:05;;;;;;;5.67;1.57;;;;;;;-1.98;74.25;96940.56;4992103;28;20042;-68
2021/12/19 01:30:34;;;;;;;3.90;1.60;;;;;;;-1.91;73.89;96930.41;4993914;28;20056;-70
2021/12/19 01:33:00;;;;;;;3.90;1.27;;;;;;;-1.93;74.16;96927.19;4994007;28;20042;-65
2021/12/19 01:35:27;;;;;;;2.73;1.10;;;;;;;-1.90;74.06;96915.16;4993180;28;20538;-69
2021/12/19 01:37:53;;;;;;;2.93;1.20;;;;;;;-1.95;74.20;96907.06;4992120;28;20082;-70
2021/12/19 01:40:24;;;;;;;3.67;1.33;;;;;;;-1.89;73.99;96889.97;4993362;28;20058;-69
2021/12/19 01:42:53;;;;;;;6.03;1.60;;;;;;;-1.86;74.01;96889.44;5012012;28;20524;-69
2021/12/19 01:45:24;;;;;;;4.73;1.47;;;;;;;-1.86;73.91;96868.00;4997659;28;20082;-71
2021/12/19 01:47:50;;;;;;;3.83;1.40;;;;;;;-1.93;74.05;96864.78;4993457;28;20550;-70
2021/12/19 01:50:17;;;;;;;2.83;1.30;;;;;;;-1.88;73.99;96846.81;4975947;28;20054;-70
2021/12/19 01:52:43;;;;;;;4.33;1.40;;;;;;;-1.88;74.06;96838.78;5007984;28;20058;-69
2021/12/19 01:55:10;;;;;;;3.70;1.43;;;;;;;-1.92;74.11;96831.56;4975389;28;20518;-69
2021/12/19 01:57:37;;;;;;;5.07;1.60;;;;;;;-1.99;74.42;96813.09;4975458;28;20046;-69
2021/12/19 02:00:06;;;;;;;3.58;1.42;;;;;;;-1.87;73.93;96821.69;4991993;28;20046;-69
2021/12/19 02:02:33;;;;;;;10.37;1.60;;;;;;;-1.94;74.39;96813.09;4991109;28;20042;-70
2021/12/19 02:04:59;;;;;;;2.50;1.20;;;;;;;-1.92;74.25;96808.25;4989702;28;20050;-70
2021/12/19 02:07:28;;;;;;;3.27;1.53;;;;;;;-1.95;74.21;96806.13;4985874;28;20398;-70
2021/12/19 02:09:54;;;;;;;3.70;1.33;;;;;;;-1.97;74.28;96794.88;4992634;28;20069;-69
2021/12/19 02:12:20;;;;;;;3.57;1.37;;;;;;;-1.95;74.58;96786.56;4985861;28;20046;-70
2021/12/19 02:14:48;;;;;;;5.20;1.60;;;;;;;-1.94;74.56;96783.63;4987453;28;20458;-70
2021/12/19 02:17:16;;;;;;;4.43;1.50;;;;;;;-1.87;74.37;96770.78;4993205;28;20050;-69
2021/12/19 02:19:43;;;;;;;4.13;1.20;;;;;;;-1.88;74.18;96744.25;5000171;28;20104;-70
2021/12/19 02:22:11;;;;;;;4.33;1.30;;;;;;;-1.86;74.10;96740.25;4965350;28;20054;-69
2021/12/19 02:24:40;;;;;;;3.77;1.47;;;;;;;-1.84;74.43;96729.25;4989432;28;20069;-68
2021/12/19 02:27:06;;;;;;;8.43;1.83;;;;;;;-1.83;74.17;96719.34;4991531;28;20070;-69
2021/12/19 02:29:32;;;;;;;4.30;1.50;;;;;;;-1.87;74.33;96711.84;4992129;28;20093;-68
2021/12/19 02:31:58;;;;;;;5.73;1.63;;;;;;;-1.98;74.44;96698.72;4986264;28;20046;-69
2021/12/19 02:34:28;;;;;;;4.13;1.53;;;;;;;-1.92;74.47;96690.41;4979423;28;20418;-69
2021/12/19 02:37:02;;;;;;;4.60;1.53;;;;;;;-1.99;74.61;96681.88;4974895;28;20074;-69
2021/12/19 02:48:13;;;;;;;3.10;1.27;;;;;;;-1.94;74.41;96652.38;4975185;28;20529;-69
2021/12/19 02:50:45;;;;;;;5.20;1.80;;;;;;;-1.85;74.22;96655.31;4987010;28;20043;-68
2021/12/19 02:53:12;;;;;;;5.80;1.60;;;;;;;-1.92;74.26;96634.16;4974663;28;20054;-69
2021/12/19 02:55:43;;;;;;;4.85;1.75;;;;;;;-1.89;74.29;96609.53;4992520;28;20056;-69
2021/12/19 02:58:09;;;;;;;8.50;1.70;;;;;;;-1.88;74.27;96610.34;4974712;28;20073;-68
2021/12/19 03:00:36;;;;;;;4.40;1.70;;;;;;;-1.82;74.27;96621.84;5000014;28;20105;-69
2021/12/19 03:03:02;;;;;;;4.47;1.67;;;;;;;-1.88;74.28;96597.72;4991044;28;20041;-70
2021/12/19 03:05:32;;;;;;;5.32;1.77;;;;;;;-1.81;74.13;96596.66;4992108;28;20050;-70
2021/12/19 03:08:00;;;;;;;5.40;1.97;;;;;;;-1.77;74.15;96587.81;4973753;28;20043;-69
2021/12/19 03:17:56;;;;;;;6.03;1.73;;;;;;;-1.77;74.07;96576.28;4957886;28;20084;-70
2021/12/19 03:19:05;;;;;;;5.03;1.70;;;;;;;-1.82;74.30;96565.59;4973375;28;20526;-70
2021/12/19 03:21:31;;;;;;;3.83;1.50;;;;;;;-1.83;74.38;96559.41;4992130;28;20076;-70
2021/12/19 03:24:00;;;;;;;4.53;1.60;;;;;;;-1.83;74.60;96564.00;4974559;28;20129;-70
2021/12/19 03:26:28;;;;;;;4.77;1.70;;;;;;;-1.76;74.28;96546.53;4990667;28;20085;-69
2021/12/19 03:28:55;;;;;;;5.85;1.67;;;;;;;-1.88;74.74;96538.00;4991381;28;20057;-70
2021/12/19 03:31:21;;;;;;;;;;;;;;;-1.82;74.75;96547.63;4974948;28;20050;-69
2021/12/19 03:33:47;;;;;;;4.43;1.30;;;;;;;-1.82;74.35;96528.88;4992327;28;19932;-68
2021/12/19 03:36:14;;;;;;;6.03;2.00;;;;;;;-1.73;74.28;96521.88;4986817;28;20495;-70
2021/12/19 03:38:43;;;;;;;5.27;1.80;;;;;;;-1.77;74.36;96514.66;4957280;28;20529;-70
2021/12/19 03:41:22;;;;;;;4.80;1.73;;;;;;;-1.82;74.63;96507.44;4990818;28;20057;-69
2021/12/19 03:43:52;;;;;;;4.33;1.73;;;;;;;-1.73;74.29;96511.16;4990605;28;20072;-69
2021/12/19 03:46:19;;;;;;;5.97;1.97;;;;;;;-1.80;74.53;96512.53;4987160;28;20058;-69
2021/12/19 03:48:45;;;;;;;4.50;1.70;;;;;;;-1.77;74.59;96495.91;5001185;28;20054;-68
2021/12/19 03:51:12;;;;;;;6.30;1.90;;;;;;;-1.72;74.53;96474.44;5003695;28;20448;-69
2021/12/19 03:53:38;;;;;;;6.07;1.90;;;;;;;-1.67;74.45;96482.47;4988255;28;20043;-69
2021/12/19 03:56:05;;;;;;;5.83;2.00;;;;;;;-1.69;74.24;96470.41;4989272;28;20160;-69
2021/12/19 03:58:31;;;;;;;4.10;1.70;;;;;;;-1.71;74.49;96487.56;4989368;28;20076;-69
2021/12/19 04:01:00;;;;;;;4.63;1.73;;;;;;;-1.74;74.52;96469.38;4978349;28;20049;-68
2021/12/19 04:03:29;;;;;;;4.83;1.90;;;;;;;-1.69;74.69;96463.19;5003021;28;20046;-68
2021/12/19 04:05:55;;;;;;;10.60;2.33;;;;;;;-1.74;74.68;96455.97;4977862;28;20527;-69
2021/12/19 04:08:21;;;;;;;7.90;2.17;;;;;;;-1.69;74.86;96444.44;4977991;28;20082;-69
2021/12/19 04:10:50;;;;;;;6.93;2.10;;;;;;;-1.66;74.75;96449.25;4998379;28;20546;-68
2021/12/19 04:13:19;;;;;;;7.57;1.77;;;;;;;-1.68;74.85;96435.31;4977625;28;20039;-69
2021/12/19 04:15:45;;;;;;;6.07;2.00;;;;;;;-1.72;74.89;96427.03;5005533;28;20049;-69
2021/12/19 04:18:12;;;;;;;5.73;2.00;;;;;;;-1.74;75.09;96415.81;5009413;28;20054;-69
2021/12/19 04:20:39;;;;;;;6.07;2.10;;;;;;;-1.66;74.66;96406.38;4977025;28;20081;-69
2021/12/19 04:23:06;;;;;;;5.50;2.03;;;;;;;-1.68;74.71;96416.56;4993607;28;20050;-69
2021/12/19 04:25:32;;;;;;;4.47;1.67;;;;;;;-1.68;74.63;96403.19;4994927;28;20189;-69
2021/12/19 04:27:58;;;;;;;6.03;2.13;;;;;;;-1.68;74.72;96394.31;4994810;28;20101;-69
2021/12/19 04:30:26;;;;;;;5.10;2.07;;;;;;;-1.68;74.73;96397.00;4980320;28;20058;-69
2021/12/19 04:33:06;;;;;;;6.53;1.98;;;;;;;-1.74;74.72;96377.47;4994358;28;20499;-68
2021/12/19 04:35:35;;;;;;;6.47;2.00;;;;;;;-1.68;74.88;96394.31;4995141;28;20062;-69
2021/12/19 04:59:51;;;;;;;5.27;2.00;;;;;;;-1.65;74.78;96345.53;4967257;28;20059;-71
2021/12/19 05:05:21;;;;;;;7.67;2.10;;;;;;;-1.58;75.04;96330.75;4994705;28;20081;-70
2021/12/19 05:16:04;;;;;;;5.97;2.10;;;;;;;-1.55;74.45;96297.22;4991395;28;20066;-69
2021/12/19 05:18:35;;;;;;;7.80;1.90;;;;;;;-1.53;74.46;96296.97;4993869;28;20054;-69
2021/12/19 05:21:06;;;;;;;6.97;2.07;;;;;;;-1.53;74.56;96289.72;4973052;28;20050;-69
2021/12/19 05:24:03;;;;;;;6.73;2.20;;;;;;;-1.54;74.44;96266.66;4992234;28;20527;-70
2021/12/19 05:26:29;;;;;;;6.80;2.37;;;;;;;-1.64;75.03;96283.66;4989557;28;20316;-69
2021/12/19 05:28:57;;;;;;;6.40;2.13;;;;;;;-1.55;74.83;96280.38;4990539;28;20072;-69
2021/12/19 05:31:23;;;;;;;;;;;;;;;-1.52;74.98;96269.09;5003660;28;20042;-70
2021/12/19 05:33:49;;;;;;;5.07;1.90;;;;;;;-1.50;74.93;96266.91;4992862;28;20345;-69
2021/12/19 05:47:01;;;;;;;5.50;2.10;;;;;;;-1.59;75.10;96264.84;5004967;28;20397;-69
2021/12/19 05:49:28;;;;;;;5.10;2.03;;;;;;;-1.61;75.46;96258.97;5011263;28;20518;-70
2021/12/19 05:51:54;;;;;;;6.67;2.40;;;;;;;-1.52;75.05;96243.06;4980045;28;20046;-75
2021/12/19 05:54:20;;;;;;;8.45;2.40;;;;;;;-1.52;75.16;96248.44;4975781;28;20054;-67
2021/12/19 05:56:48;;;;;;;9.10;2.40;;;;;;;-1.46;75.05;96243.81;4978787;28;20141;-67
2021/12/19 05:59:15;;;;;;;14.10;2.50;;;;;;;-1.48;75.35;96246.00;4985417;28;20062;-67
2021/12/19 06:01:43;;;;;;;7.30;2.83;;;;;;;-1.47;75.13;96231.50;4989844;28;20046;-66
2021/12/19 06:04:10;;;;;;;23.25;2.95;;;;;;;-1.56;75.52;96231.31;4971497;28;20082;-67
2021/12/19 06:06:36;;;;;;;8.25;2.60;;;;;;;-1.60;75.63;96212.34;4974980;28;20081;-66
2021/12/19 06:09:04;;;;;;;5.23;2.00;;;;;;;-1.50;75.52;96216.78;4988354;28;20058;-69
2021/12/19 06:11:30;;;;;;;7.32;2.40;;;;;;;-1.50;75.83;96216.78;4990633;28;20333;-64
2021/12/19 06:13:57;;;;;;;9.40;2.53;;;;;;;-1.45;75.42;96213.25;4992608;28;20049;-65
2021/12/19 06:16:24;;;;;;;6.00;2.20;;;;;;;-1.41;75.20;96216.97;4992170;28;20498;-65
2021/12/19 06:18:50;;;;;;;6.53;2.20;;;;;;;-1.48;75.50;96208.47;4992518;28;20054;-65
2021/12/19 06:21:16;;;;;;;7.67;2.50;;;;;;;-1.64;75.77;96184.50;4988392;28;20495;-65
2021/12/19 06:23:43;;;;;;;6.83;2.43;;;;;;;-1.54;75.68;96196.22;4991894;28;20116;-65
2021/12/19 06:26:11;;;;;;;9.05;3.50;;;;;;;-1.54;75.61;96182.81;4991840;28;20050;-64
2021/12/19 06:28:37;;;;;;;;;;;;;;;-1.41;75.32;96198.19;5001648;28;20037;-64
2021/12/19 06:31:05;;;;;;;8.40;2.23;;;;;;;-1.48;75.55;96187.03;4987549;28;19925;-65
2021/12/19 06:33:32;;;;;;;8.57;3.17;;;;;;;-1.45;75.29;96179.22;4992250;28;20580;-65
2021/12/19 06:35:58;;;;;;;9.40;2.67;;;;;;;-1.40;75.51;96175.69;4991900;28;20565;-65
2021/12/19 06:38:24;;;;;;;10.03;2.50;;;;;;;-1.43;75.49;96176.25;4989622;28;20050;-65
2021/12/19 06:40:50;;;;;;;9.23;2.73;;;;;;;-1.42;75.48;96164.44;4982337;28;20078;-65
2021/12/19 06:43:17;;;;;;;8.07;3.00;;;;;;;-1.31;75.28;96173.19;4988128;28;20046;-65
2021/12/19 06:45:43;;;;;;;8.80;2.93;;;;;;;-1.31;75.35;96182.00;4986680;28;20049;-64
2021/12/19 06:48:10;;;;;;;8.67;2.90;;;;;;;-1.29;75.08;96161.06;4985694;28;20061;-65
2021/12/19 06:50:37;;;;;;;7.22;2.92;;;;;;;-1.26;75.06;96156.22;4988610;28;20054;-65
2021/12/19 06:53:03;;;;;;;10.57;3.17;;;;;;;-1.19;74.85;96156.69;4979221;28;20054;-66
2021/12/19 06:55:29;;;;;;;9.57;3.42;;;;;;;-1.11;74.77;96147.19;4990069;28;20050;-65
2021/12/19 06:57:55;;;;;;;9.07;3.40;;;;;;;-1.23;74.78;96143.03;4986204;28;20057;-65
2021/12/19 07:00:24;;;;;;;10.43;3.10;;;;;;;-1.06;74.54;96147.94;4989877;28;20050;-66
2021/12/19 07:02:52;;;;;;;13.17;3.10;;;;;;;-1.15;74.81;96131.69;4988344;28;20042;-65
2021/12/19 07:05:19;;;;;;;9.40;3.30;;;;;;;-1.20;75.06;96129.06;4989033;28;20410;-65
2021/12/19 07:07:46;;;;;;;;;;;;;;;-1.14;74.92;96129.78;4989589;28;20057;-65
2021/12/19 07:10:12;;;;;;;9.68;3.00;;;;;;;-1.24;75.37;96129.94;4991165;28;19952;-66
2021/12/19 07:12:38;;;;;;;13.13;3.70;;;;;;;-1.28;75.22;96110.94;4989524;28;20046;-66
2021/12/19 07:15:06;;;;;;;12.20;3.37;;;;;;;-1.19;75.37;96129.88;4988496;28;20046;-68
2021/12/19 07:17:32;;;;;;;9.20;3.40;;;;;;;-1.12;75.16;96119.56;4990478;28;20136;-65
2021/12/19 07:19:59;;;;;;;11.20;3.72;;;;;;;-1.10;75.04;96120.06;5000953;28;20054;-66
2021/12/19 07:22:26;;;;;;;9.60;3.47;;;;;;;-1.05;74.91;96108.47;4990564;28;20089;-66
2021/12/19 07:24:52;;;;;;;13.35;3.65;;;;;;;-1.02;74.75;96108.72;4987701;28;20042;-66
2021/12/19 07:27:19;;;;;;;9.77;3.83;;;;;;;-0.99;74.72;96104.66;4990464;28;20482;-66
2021/12/19 07:29:45;;;;;;;13.47;4.00;;;;;;;-0.92;74.64;96098.94;4991103;28;20054;-66
2021/12/19 07:32:11;;;;;;;12.80;3.60;;;;;;;-0.83;74.45;96109.81;4991095;28;20050;-66
2021/12/19 07:34:38;;;;;;;12.07;3.90;;;;;;;-0.87;74.61;96102.31;4989450;28;20511;-66
2021/12/19 07:37:05;;;;;;;12.07;4.32;;;;;;;-0.78;74.33;96094.44;4994754;28;20092;-72
2021/12/19 07:42:04;;;;;;;12.88;4.18;;;;;;;-0.80;74.73;96087.75;4976238;28;20418;-73
2021/12/19 07:44:31;;;;;;;19.25;4.95;;;;;;;-0.73;74.67;96088.16;4973967;28;20571;-73
2021/12/19 07:46:58;;;;;;;10.53;4.07;;;;;;;-0.66;74.53;96080.56;4993799;28;20054;-73
2021/12/19 07:49:24;;;;;;;17.67;4.15;;;;;;;-0.57;74.20;96076.09;4976808;28;20367;-73
2021/12/19 07:51:51;;;;;;;14.60;4.20;;;;;;;-0.58;74.34;96071.81;4990242;28;20057;-72
2021/12/19 07:54:17;;;;;;;12.87;4.40;;;;;;;-0.50;74.47;96073.03;4996062;28;20423;-73
2021/12/19 07:56:46;;;;;;;20.38;5.05;;;;;;;-0.37;73.78;96065.31;4994807;28;20082;-72
2021/12/19 07:59:14;;;;;;;14.10;4.10;;;;;;;-0.36;73.68;96072.28;4995463;28;20050;-73
2021/12/19 08:01:40;;;;;;;14.45;4.57;;;;;;;-0.33;73.41;96069.81;4993361;28;20054;-72
2021/12/19 08:04:06;;;;;;;14.10;4.30;;;;;;;-0.22;73.26;96067.72;4995704;28;20161;-72
2021/12/19 08:06:32;;;;;;;13.65;5.20;;;;;;;-0.33;73.44;96069.00;5001658;28;20054;-73
2021/12/19 08:09:07;;;;;;;12.52;4.63;;;;;;;-0.18;73.29;96059.88;4989716;28;20124;-73
2021/12/19 08:11:39;;;;;;;12.80;4.33;;;;;;;-0.21;73.22;96055.91;4990440;28;20054;-72
2021/12/19 08:14:09;;;;;;;15.40;4.63;;;;;;;-0.09;72.95;96060.00;4992949;28;20443;-73
2021/12/19 08:16:35;;;;;;;13.88;4.93;;;;;;;-0.09;72.62;96054.63;4991984;28;20275;-73
2021/12/19 08:19:02;;;;;;;14.77;4.57;;;;;;;-0.09;72.99;96052.72;4987255;28;20074;-73
2021/12/19 08:21:28;;;;;;;17.40;4.60;;;;;;;-0.04;72.68;96055.34;4993585;28;20055;-72
2021/12/19 08:23:58;;;;;;;24.80;6.15;;;;;;;0.02;72.70;96045.28;4994473;28;20487;-72
2021/12/19 08:26:25;;;;;;;24.08;6.13;;;;;;;0.03;72.87;96043.38;4994599;28;20050;-74
2021/12/19 08:28:52;;;;;;;31.57;6.20;;;;;;;0.05;72.98;96042.00;4990324;28;20046;-72
2021/12/19 08:31:20;;;;;;;18.40;5.43;;;;;;;0.04;72.96;96034.22;5008089;28;20331;-73
2021/12/19 08:33:46;;;;;;;18.70;5.32;;;;;;;0.12;73.05;96028.94;5008562;28;20050;-72
2021/12/19 08:36:13;;;;;;;17.45;5.35;;;;;;;0.16;72.81;96022.97;5000359;28;20050;-73
2021/12/19 08:38:39;;;;;;;24.13;6.13;;;;;;;0.20;72.82;96019.41;4993763;28;20050;-73
2021/12/19 08:41:05;;;;;;;14.73;5.15;;;;;;;0.23;72.82;96020.69;4976052;28;20053;-71
2021/12/19 08:43:31;;;;;;;18.60;5.05;;;;;;;0.24;72.89;96031.16;4977046;28;20060;-70
2021/12/19 08:45:57;;;;;;;24.20;5.60;;;;;;;0.21;72.92;96012.94;4988492;28;20043;-71
2021/12/19 08:48:26;;;;;;;19.30;5.47;;;;;;;0.23;73.13;96020.69;4974777;28;20069;-71
2021/12/19 08:50:52;;;;;;;18.13;5.78;;;;;;;0.27;73.06;96017.13;4994658;28;20052;-72
2021/12/19 08:53:18;;;;;;;33.05;6.88;;;;;;;0.32;72.81;96012.72;4993870;28;20553;-72
2021/12/19 08:55:46;;;;;;;27.73;8.40;;;;;;;0.33;72.75;96006.25;4986960;28;20133;-71
2021/12/19 08:58:12;;;;;;;32.58;6.63;;;;;;;0.38;72.83;96012.31;5009350;28;20392;-73
2021/12/19 09:00:39;;;;;;;33.63;7.15;;;;;;;0.44;72.89;96004.13;4973541;28;20058;-71
2021/12/19 09:03:05;;;;;;;28.50;6.88;;;;;;;0.48;72.90;95997.09;4992848;28;20046;-72
2021/12/19 09:05:33;;;;;;;39.30;7.57;;;;;;;0.51;72.53;95993.78;4987240;28;20050;-71
2021/12/19 09:08:00;;;;;;;33.63;8.30;;;;;;;0.58;72.70;95996.06;4996398;28;20043;-73
2021/12/19 09:10:27;;;;;;;35.07;7.10;;;;;;;0.58;72.65;95988.00;4994633;28;20105;-72
2021/12/19 09:12:53;;;;;;;36.95;7.43;;;;;;;0.60;72.69;95986.56;4992087;28;20487;-72
2021/12/19 09:15:20;;;;;;;37.78;7.15;;;;;;;0.65;72.71;95983.78;4970856;28;20050;-71
2021/12/19 09:17:46;;;;;;;32.55;8.15;;;;;;;0.72;72.50;95987.94;4973654;28;20174;-72
2021/12/19 09:20:13;;;;;;;30.27;7.25;;;;;;;0.76;72.37;95984.34;4996839;28;20050;-75
2021/12/19 09:22:42;;;;;;;32.28;7.70;;;;;;;0.73;72.23;95976.09;5012464;28;20099;-73
2021/12/19 09:25:08;;;;;;;29.90;7.18;;;;;;;0.77;72.43;95975.19;5000406;28;20046;-72
2021/12/19 09:27:35;;;;;;;37.38;8.15;;;;;;;0.82;72.33;95972.34;4984476;28;20074;-73
2021/12/19 09:30:03;;;;;;;34.55;7.35;;;;;;;0.87;72.18;95973.34;5001888;28;20062;-73
2021/12/19 09:32:33;;;;;;;50.35;9.07;;;;;;;0.90;72.15;95973.53;4994594;28;20053;-73
2021/12/19 09:35:02;;;;;;;32.50;7.78;;;;;;;0.91;72.22;95975.09;4992081;28;20053;-72
2021/12/19 09:37:35;;;;;;;30.83;8.25;;;;;;;0.92;72.35;95979.38;4974684;28;20053;-71
2021/12/19 09:40:12;;;;;;;26.08;7.85;;;;;;;0.90;72.45;95970.06;4992532;28;20062;-73
2021/12/19 09:42:49;;;;;;;28.77;8.57;;;;;;;0.91;72.37;95974.34;4995303;28;20046;-72
2021/12/19 09:45:18;;;;;;;33.37;8.10;;;;;;;0.94;72.30;95957.56;4992637;28;20042;-72
2021/12/19 09:47:46;;;;;;;34.10;8.88;;;;;;;0.96;72.27;95941.91;4974679;28;20050;-72
2021/12/19 09:50:15;;;;;;;40.40;8.55;;;;;;;1.01;72.27;95951.75;4998034;28;20510;-71
2021/12/19 09:52:44;;;;;;;34.22;8.20;;;;;;;1.09;72.21;95942.94;4994268;28;20046;-72
2021/12/19 09:55:18;;;;;;;32.63;9.20;;;;;;;1.03;72.05;95918.09;4967010;28;20054;-71
2021/12/19 09:57:50;;;;;;;32.97;9.43;;;;;;;1.10;72.06;95923.03;4990757;28;20062;-71
2021/12/19 10:00:22;;;;;;;43.92;10.75;;;;;;;1.15;72.16;95928.28;4985567;28;20055;-72
2021/12/19 10:02:51;;;;;;;30.27;10.95;;;;;;;1.18;72.17;95922.28;5002272;28;20100;-72
2021/12/19 10:05:23;;;;;;;35.70;9.95;;;;;;;1.14;72.15;95910.53;4961376;28;20046;-72
2021/12/19 10:07:56;;;;;;;34.63;10.70;;;;;;;1.21;72.30;95918.94;4957411;28;21151;-71
2021/12/19 10:11:14;;;;;;;41.33;10.27;;;;;;;1.25;72.20;95922.63;4980067;28;20495;-72
2021/12/19 10:13:36;;;;;;;33.47;9.35;;;;;;;1.25;72.02;95919.13;4979364;28;20054;-73
2021/12/19 10:16:24;;;;;;;37.42;10.02;;;;;;;1.27;72.15;95906.97;4982678;28;20105;-72
2021/12/19 10:18:51;;;;;;;35.67;9.10;;;;;;;1.32;72.11;95903.31;5004453;28;20133;-70
2021/12/19 10:21:18;;;;;;;32.07;9.83;;;;;;;1.27;72.22;95900.78;4992244;28;20467;-71
2021/12/19 10:23:45;;;;;;;30.65;10.32;;;;;;;1.27;72.51;95896.19;4992891;28;20069;-72
2021/12/19 10:26:13;;;;;;;35.75;9.27;;;;;;;1.25;72.50;95895.72;4990941;28;20062;-71
2021/12/19 10:28:50;;;;;;;26.23;8.40;;;;;;;1.20;72.51;95887.75;4991578;28;20081;-73
2021/12/19 10:31:17;;;;;;;31.53;8.20;;;;;;;1.24;72.60;95888.72;4992845;28;20046;-72
2021/12/19 10:33:43;;;;;;;28.65;9.45;;;;;;;1.27;72.59;95892.69;5006995;28;20337;-72
2021/12/19 10:36:10;;;;;;;27.80;8.85;;;;;;;1.29;72.29;95885.09;4991283;28;20511;-71
2021/12/19 10:38:38;;;;;;;35.67;9.57;;;;;;;1.35;72.40;95891.97;4990129;28;20072;-71
2021/12/19 10:41:12;;;;;;;35.80;9.10;;;;;;;1.36;72.31;95882.78;4991836;28;20456;-73
2021/12/19 10:43:46;;;;;;;34.83;9.77;;;;;;;1.36;72.16;95877.41;4956502;28;20068;-72
2021/12/19 10:46:13;;;;;;;29.60;9.30;;;;;;;1.26;72.49;95873.09;4990574;28;20058;-72
2021/12/19 10:48:43;;;;;;;40.45;9.32;;;;;;;1.31;72.41;95877.50;4975219;28;20077;-72
2021/12/19 10:51:11;;;;;;;36.35;10.43;;;;;;;1.33;72.14;95885.28;4990344;28;20080;-71
2021/12/19 10:53:43;;;;;;;61.88;16.98;;;;;;;1.36;72.25;95880.09;4975090;28;20529;-73
2021/12/19 10:56:12;;;;;;;95.13;19.95;;;;;;;1.35;72.19;95888.47;4988061;28;20461;-73
2021/12/19 10:58:43;;;;;;;99.38;23.42;;;;;;;1.39;72.02;95881.34;4974239;28;20093;-72
2021/12/19 11:01:25;;;;;;;126.30;25.92;;;;;;;1.37;71.79;95875.47;4991360;28;20521;-73
2021/12/19 11:03:57;;;;;;;135.45;28.95;;;;;;;1.42;71.75;95883.44;4988317;28;20057;-73
2021/12/19 11:06:39;;;;;;;132.40;26.63;;;;;;;1.37;71.67;95875.47;4991432;28;20057;-72
2021/12/19 11:09:11;;;;;;;123.05;24.33;;;;;;;1.41;71.49;95882.63;4991171;28;20155;-73
2021/12/19 11:11:48;;;;;;;134.60;28.73;;;;;;;1.09;71.50;95840.69;4989590;28;20054;-72
2021/12/19 11:14:22;;;;;;;155.40;33.00;;;;;;;1.39;71.45;95882.16;4971331;28;20049;-72
2021/12/19 11:16:54;;;;;;;167.77;33.83;;;;;;;1.41;71.19;95877.25;4991992;28;20065;-72
2021/12/19 11:19:25;;;;;;;150.98;31.77;;;;;;;1.52;71.19;95879.66;4990761;28;20054;-73
2021/12/19 11:21:52;;;;;;;156.85;32.72;;;;;;;1.35;71.11;95859.66;4987199;28;20105;-73
2021/12/19 11:24:21;;;;;;;129.45;29.83;;;;;;;1.48;71.14;95876.00;4986837;28;20097;-72
2021/12/19 11:26:52;;;;;;;81.93;19.35;;;;;;;1.50;71.10;95874.59;4972471;28;20423;-72
2021/12/19 11:29:23;;;;;;;72.85;17.90;;;;;;;1.54;71.08;95875.53;4971512;28;20055;-73
2021/12/19 11:31:53;;;;;;;47.80;12.07;;;;;;;1.55;70.85;95876.34;4977667;28;20039;-73
2021/12/19 11:34:36;;;;;;;44.10;11.88;;;;;;;1.58;70.72;95867.63;4987468;28;20042;-72
2021/12/19 11:37:10;;;;;;;31.13;9.13;;;;;;;1.54;70.73;95866.69;4958530;28;20056;-72
2021/12/19 11:39:40;;;;;;;38.78;12.20;;;;;;;1.61;70.71;95872.41;4988594;28;20058;-72
2021/12/19 11:42:09;;;;;;;58.92;21.83;;;;;;;1.60;70.72;95875.41;4989222;28;20078;-72
2021/12/19 11:44:46;;;;;;;59.28;22.05;;;;;;;1.57;70.65;95876.03;4991082;28;20042;-72
2021/12/19 11:47:42;;;;;;;65.22;16.83;;;;;;;1.59;70.97;95871.13;4990613;28;20145;-73
2021/12/19 11:50:22;;;;;;;41.05;12.70;;;;;;;1.64;70.62;95877.19;4986644;28;20217;-73
2021/12/19 11:52:50;;;;;;;32.92;9.55;;;;;;;1.62;70.61;95873.19;4957674;28;20084;-73
2021/12/19 11:55:33;;;;;;;33.22;9.40;;;;;;;1.60;70.74;95870.03;4991258;28;20051;-72
2021/12/19 11:58:27;;;;;;;31.23;9.07;;;;;;;1.58;70.68;95870.34;4972134;28;20132;-72
2021/12/19 12:01:08;;;;;;;38.15;8.80;;;;;;;1.66;70.72;95877.66;4987312;28;20054;-73
2021/12/19 12:03:43;;;;;;;36.13;9.32;;;;;;;1.65;70.65;95875.25;4972488;28;20060;-73
2021/12/19 12:06:41;;;;;;;31.15;10.00;;;;;;;1.66;70.51;95879.53;4990015;28;20054;-72
2021/12/19 12:09:30;;;;;;;27.23;8.40;;;;;;;1.69;70.45;95873.53;4969149;28;20092;-73
2021/12/19 12:12:19;;;;;;;27.52;8.85;;;;;;;1.68;70.59;95882.72;4991716;28;20085;-73
2021/12/19 12:14:58;;;;;;;32.65;9.70;;;;;;;1.65;70.67;95870.69;4988360;28;20058;-73
2021/12/19 12:17:39;;;;;;;24.90;8.25;;;;;;;1.69;70.50;95868.13;4990445;28;20054;-73
2021/12/19 12:20:26;;;;;;;22.73;8.18;;;;;;;1.69;70.38;95870.84;4990842;28;20046;-73
2021/12/19 12:23:00;;;;;;;27.80;8.65;;;;;;;1.64;70.62;95862.91;4995504;28;20432;-72
2021/12/19 12:25:34;;;;;;;27.98;8.63;;;;;;;1.64;70.26;95868.28;4991818;28;20042;-73
2021/12/19 12:28:06;;;;;;;22.20;7.60;;;;;;;1.65;70.37;95859.91;4978066;28;20422;-72
2021/12/19 12:30:36;;;;;;;27.33;8.20;;;;;;;1.72;70.10;95866.72;4995352;28;20042;-73
2021/12/19 12:33:06;;;;;;;20.75;7.13;;;;;;;1.63;70.23;95850.56;4995611;28;20050;-73
2021/12/19 12:35:35;;;;;;;19.38;6.18;;;;;;;1.70;70.15;95861.66;4991664;28;20554;-72
2021/12/19 12:38:02;;;;;;;21.33;6.38;;;;;;;1.64;70.09;95857.53;4994555;28;20050;-72
2021/12/19 12:40:45;;;;;;;25.98;5.80;;;;;;;1.65;70.14;95861.78;4977336;28;20070;-73
2021/12/19 12:43:13;;;;;;;22.98;5.68;;;;;;;1.65;70.14;95859.91;4994200;28;20054;-72
2021/12/19 12:46:00;;;;;;;25.35;5.43;;;;;;;1.71;69.91;95865.91;4977415;28;20073;-72
2021/12/19 12:48:31;;;;;;;24.02;5.20;;;;;;;1.61;69.85;95856.25;4991534;28;20065;-73